sensor_id;sensor_type;location;lat;lon;timestamp;P1;durP1;ratioP1;P2;durP2;ratioP2
43319;SDS011;28914;48.722;9.332;2023-01-19T00:03:07;8.40;;;6.90;;
43319;SDS011;28914;48.722;9.332;2023-01-19T00:08:33;7.93;;;6.87;;
43319;SDS011;28914;48.722;9.332;2023-01-19T00:13:53;8.00;;;7.20;;
43319;SDS011;28914;48.722;9.332;2023-01-19T00:19:12;16.80;;;6.97;;
43319;SDS011;28914;48.722;9.332;2023-01-19T00:24:31;8.07;;;7.07;;
43319;SDS011;28914;48.722;9.332;2023-01-19T00:29:51;7.87;;;7.07;;
43319;SDS011;28914;48.722;9.332;2023-01-19T00:35:10;7.30;;;6.60;;
43319;SDS011;28914;48.722;9.332;2023-01-19T00:40:29;8.97;;;7.03;;
43319;SDS011;28914;48.722;9.332;2023-01-19T00:45:48;8.50;;;7.60;;
43319;SDS011;28914;48.722;9.332;2023-01-19T00:51:07;8.77;;;7.87;;
43319;SDS011;28914;48.722;9.332;2023-01-19T00:56:26;9.07;;;7.80;;
43319;SDS011;28914;48.722;9.332;2023-01-19T01:01:45;9.43;;;7.87;;
43319;SDS011;28914;48.722;9.332;2023-01-19T01:07:05;9.43;;;8.07;;
43319;SDS011;28914;48.722;9.332;2023-01-19T01:12:24;7.77;;;7.00;;
43319;SDS011;28914;48.722;9.332;2023-01-19T01:17:43;8.93;;;7.93;;
43319;SDS011;28914;48.722;9.332;2023-01-19T01:23:05;9.10;;;7.47;;
43319;SDS011;28914;48.722;9.332;2023-01-19T01:28:25;8.80;;;7.90;;
43319;SDS011;28914;48.722;9.332;2023-01-19T01:33:44;8.20;;;7.27;;
43319;SDS011;28914;48.722;9.332;2023-01-19T01:39:04;8.40;;;7.50;;
43319;SDS011;28914;48.722;9.332;2023-01-19T01:44:43;9.07;;;7.73;;
43319;SDS011;28914;48.722;9.332;2023-01-19T01:50:11;8.70;;;7.80;;
43319;SDS011;28914;48.722;9.332;2023-01-19T01:55:42;7.80;;;7.00;;
43319;SDS011;28914;48.722;9.332;2023-01-19T02:01:04;7.40;;;6.70;;
43319;SDS011;28914;48.722;9.332;2023-01-19T02:06:43;9.40;;;8.23;;
43319;SDS011;28914;48.722;9.332;2023-01-19T02:12:22;10.00;;;8.63;;
43319;SDS011;28914;48.722;9.332;2023-01-19T02:18:00;12.50;;;10.63;;
43319;SDS011;28914;48.722;9.332;2023-01-19T02:23:26;12.20;;;10.33;;
43319;SDS011;28914;48.722;9.332;2023-01-19T02:28:59;10.60;;;9.50;;
43319;SDS011;28914;48.722;9.332;2023-01-19T02:34:25;10.23;;;9.23;;
43319;SDS011;28914;48.722;9.332;2023-01-19T02:39:45;8.23;;;7.40;;
43319;SDS011;28914;48.722;9.332;2023-01-19T02:45:19;9.33;;;8.43;;
43319;SDS011;28914;48.722;9.332;2023-01-19T02:50:44;9.10;;;8.07;;
43319;SDS011;28914;48.722;9.332;2023-01-19T03:07:54;8.77;;;7.80;;
43319;SDS011;28914;48.722;9.332;2023-01-19T03:18:51;10.27;;;7.87;;
43319;SDS011;28914;48.722;9.332;2023-01-19T03:24:17;9.00;;;8.10;;
43319;SDS011;28914;48.722;9.332;2023-01-19T03:29:41;8.97;;;7.43;;
43319;SDS011;28914;48.722;9.332;2023-01-19T03:35:06;11.63;;;9.17;;
43319;SDS011;28914;48.722;9.332;2023-01-19T03:40:30;10.30;;;8.47;;
43319;SDS011;28914;48.722;9.332;2023-01-19T03:45:50;9.43;;;7.43;;
43319;SDS011;28914;48.722;9.332;2023-01-19T03:51:11;12.90;;;7.83;;
43319;SDS011;28914;48.722;9.332;2023-01-19T03:56:32;10.37;;;9.27;;
43319;SDS011;28914;48.722;9.332;2023-01-19T04:01:51;9.47;;;8.47;;
43319;SDS011;28914;48.722;9.332;2023-01-19T04:07:10;9.47;;;8.53;;
43319;SDS011;28914;48.722;9.332;2023-01-19T04:12:29;9.53;;;7.67;;
43319;SDS011;28914;48.722;9.332;2023-01-19T04:17:48;8.07;;;7.27;;
43319;SDS011;28914;48.722;9.332;2023-01-19T04:23:08;8.83;;;7.87;;
43319;SDS011;28914;48.722;9.332;2023-01-19T04:28:27;9.40;;;8.33;;
43319;SDS011;28914;48.722;9.332;2023-01-19T04:33:46;9.57;;;7.90;;
43319;SDS011;28914;48.722;9.332;2023-01-19T04:39:06;15.13;;;9.17;;
43319;SDS011;28914;48.722;9.332;2023-01-19T04:44:27;8.47;;;7.63;;
43319;SDS011;28914;48.722;9.332;2023-01-19T04:49:46;9.27;;;8.30;;
43319;SDS011;28914;48.722;9.332;2023-01-19T04:55:06;8.30;;;7.40;;
43319;SDS011;28914;48.722;9.332;2023-01-19T05:00:25;9.63;;;8.40;;
43319;SDS011;28914;48.722;9.332;2023-01-19T05:05:45;8.53;;;6.83;;
43319;SDS011;28914;48.722;9.332;2023-01-19T05:11:04;8.40;;;7.57;;
43319;SDS011;28914;48.722;9.332;2023-01-19T05:16:23;10.07;;;7.57;;
43319;SDS011;28914;48.722;9.332;2023-01-19T05:21:42;10.57;;;8.80;;
43319;SDS011;28914;48.722;9.332;2023-01-19T05:27:02;11.43;;;9.60;;
43319;SDS011;28914;48.722;9.332;2023-01-19T05:32:21;11.30;;;9.53;;
43319;SDS011;28914;48.722;9.332;2023-01-19T05:37:40;10.70;;;8.77;;
43319;SDS011;28914;48.722;9.332;2023-01-19T05:43:01;12.43;;;8.97;;
43319;SDS011;28914;48.722;9.332;2023-01-19T05:48:22;8.67;;;7.87;;
43319;SDS011;28914;48.722;9.332;2023-01-19T05:53:41;11.07;;;9.97;;
43319;SDS011;28914;48.722;9.332;2023-01-19T05:59:01;11.80;;;8.60;;
43319;SDS011;28914;48.722;9.332;2023-01-19T06:04:20;11.93;;;8.63;;
43319;SDS011;28914;48.722;9.332;2023-01-19T06:09:40;9.73;;;7.63;;
43319;SDS011;28914;48.722;9.332;2023-01-19T06:14:59;10.10;;;7.97;;
43319;SDS011;28914;48.722;9.332;2023-01-19T06:20:18;8.13;;;7.33;;
43319;SDS011;28914;48.722;9.332;2023-01-19T06:25:37;9.13;;;7.30;;
43319;SDS011;28914;48.722;9.332;2023-01-19T06:30:57;16.33;;;13.97;;
43319;SDS011;28914;48.722;9.332;2023-01-19T06:36:16;11.30;;;9.40;;
43319;SDS011;28914;48.722;9.332;2023-01-19T06:41:36;10.77;;;8.87;;
43319;SDS011;28914;48.722;9.332;2023-01-19T06:46:56;9.30;;;8.03;;
43319;SDS011;28914;48.722;9.332;2023-01-19T06:52:15;8.63;;;7.10;;
43319;SDS011;28914;48.722;9.332;2023-01-19T06:57:36;9.00;;;8.10;;
43319;SDS011;28914;48.722;9.332;2023-01-19T07:02:55;11.27;;;9.07;;
43319;SDS011;28914;48.722;9.332;2023-01-19T07:08:14;10.87;;;8.87;;
43319;SDS011;28914;48.722;9.332;2023-01-19T07:13:34;10.60;;;8.33;;
43319;SDS011;28914;48.722;9.332;2023-01-19T07:18:54;9.50;;;7.23;;
43319;SDS011;28914;48.722;9.332;2023-01-19T07:24:14;9.30;;;8.07;;
43319;SDS011;28914;48.722;9.332;2023-01-19T07:29:33;10.70;;;9.57;;
43319;SDS011;28914;48.722;9.332;2023-01-19T07:34:52;9.00;;;7.87;;
43319;SDS011;28914;48.722;9.332;2023-01-19T07:40:13;9.50;;;8.50;;
43319;SDS011;28914;48.722;9.332;2023-01-19T07:45:32;13.03;;;9.37;;
43319;SDS011;28914;48.722;9.332;2023-01-19T07:50:54;13.77;;;10.30;;
43319;SDS011;28914;48.722;9.332;2023-01-19T07:56:22;11.30;;;10.10;;
43319;SDS011;28914;48.722;9.332;2023-01-19T08:01:42;11.03;;;9.20;;
43319;SDS011;28914;48.722;9.332;2023-01-19T08:07:01;12.30;;;9.13;;
43319;SDS011;28914;48.722;9.332;2023-01-19T08:12:21;12.67;;;10.87;;
43319;SDS011;28914;48.722;9.332;2023-01-19T08:17:40;12.00;;;10.37;;
43319;SDS011;28914;48.722;9.332;2023-01-19T08:22:59;13.87;;;12.40;;
43319;SDS011;28914;48.722;9.332;2023-01-19T08:28:20;12.20;;;10.60;;
43319;SDS011;28914;48.722;9.332;2023-01-19T08:33:40;11.80;;;10.00;;
43319;SDS011;28914;48.722;9.332;2023-01-19T08:39:00;10.77;;;8.93;;
43319;SDS011;28914;48.722;9.332;2023-01-19T08:44:19;11.37;;;9.97;;
43319;SDS011;28914;48.722;9.332;2023-01-19T08:49:38;11.63;;;9.70;;
43319;SDS011;28914;48.722;9.332;2023-01-19T08:54:58;13.27;;;9.30;;
43319;SDS011;28914;48.722;9.332;2023-01-19T09:00:19;9.00;;;7.40;;
43319;SDS011;28914;48.722;9.332;2023-01-19T09:05:39;8.17;;;6.77;;
43319;SDS011;28914;48.722;9.332;2023-01-19T09:10:58;7.47;;;6.77;;
43319;SDS011;28914;48.722;9.332;2023-01-19T09:16:17;11.93;;;10.60;;
43319;SDS011;28914;48.722;9.332;2023-01-19T09:21:37;13.53;;;11.53;;
43319;SDS011;28914;48.722;9.332;2023-01-19T09:26:56;13.87;;;11.90;;
43319;SDS011;28914;48.722;9.332;2023-01-19T09:32:15;10.83;;;9.73;;
43319;SDS011;28914;48.722;9.332;2023-01-19T09:37:35;7.83;;;6.93;;
43319;SDS011;28914;48.722;9.332;2023-01-19T09:48:33;7.73;;;7.00;;
43319;SDS011;28914;48.722;9.332;2023-01-19T09:54:10;9.80;;;6.53;;
43319;SDS011;28914;48.722;9.332;2023-01-19T09:59:32;9.10;;;8.23;;
43319;SDS011;28914;48.722;9.332;2023-01-19T10:04:54;7.80;;;6.90;;
43319;SDS011;28914;48.722;9.332;2023-01-19T10:15:54;6.73;;;6.03;;
43319;SDS011;28914;48.722;9.332;2023-01-19T10:21:20;6.77;;;6.07;;
43319;SDS011;28914;48.722;9.332;2023-01-19T10:26:56;6.20;;;5.50;;
43319;SDS011;28914;48.722;9.332;2023-01-19T10:32:16;7.13;;;5.80;;
43319;SDS011;28914;48.722;9.332;2023-01-19T10:37:42;6.17;;;4.80;;
43319;SDS011;28914;48.722;9.332;2023-01-19T10:43:28;6.90;;;5.83;;
43319;SDS011;28914;48.722;9.332;2023-01-19T10:54:49;5.67;;;5.20;;
43319;SDS011;28914;48.722;9.332;2023-01-19T11:05:49;6.87;;;5.97;;
43319;SDS011;28914;48.722;9.332;2023-01-19T11:11:08;5.43;;;4.90;;
43319;SDS011;28914;48.722;9.332;2023-01-19T11:16:30;5.93;;;5.40;;
43319;SDS011;28914;48.722;9.332;2023-01-19T11:21:52;7.20;;;6.10;;
43319;SDS011;28914;48.722;9.332;2023-01-19T11:27:47;4.87;;;4.40;;
43319;SDS011;28914;48.722;9.332;2023-01-19T11:33:20;7.27;;;5.27;;
43319;SDS011;28914;48.722;9.332;2023-01-19T11:38:51;6.40;;;5.63;;
43319;SDS011;28914;48.722;9.332;2023-01-19T11:44:16;5.97;;;5.37;;
43319;SDS011;28914;48.722;9.332;2023-01-19T11:49:46;5.20;;;4.70;;
43319;SDS011;28914;48.722;9.332;2023-01-19T11:55:16;5.70;;;4.40;;
43319;SDS011;28914;48.722;9.332;2023-01-19T12:01:03;5.30;;;4.13;;
43319;SDS011;28914;48.722;9.332;2023-01-19T12:06:25;6.67;;;5.63;;
43319;SDS011;28914;48.722;9.332;2023-01-19T12:11:52;9.00;;;6.10;;
43319;SDS011;28914;48.722;9.332;2023-01-19T12:17:43;5.47;;;4.83;;
43319;SDS011;28914;48.722;9.332;2023-01-19T12:23:11;6.40;;;5.30;;
43319;SDS011;28914;48.722;9.332;2023-01-19T12:28:48;4.63;;;4.13;;
43319;SDS011;28914;48.722;9.332;2023-01-19T12:39:46;10.90;;;8.80;;
43319;SDS011;28914;48.722;9.332;2023-01-19T12:45:07;8.77;;;6.60;;
43319;SDS011;28914;48.722;9.332;2023-01-19T12:50:34;11.07;;;6.30;;
43319;SDS011;28914;48.722;9.332;2023-01-19T12:55:58;11.23;;;6.63;;
43319;SDS011;28914;48.722;9.332;2023-01-19T13:01:23;6.70;;;5.10;;
43319;SDS011;28914;48.722;9.332;2023-01-19T13:12:10;13.20;;;7.33;;
43319;SDS011;28914;48.722;9.332;2023-01-19T13:17:32;10.93;;;9.43;;
43319;SDS011;28914;48.722;9.332;2023-01-19T13:23:14;5.83;;;5.23;;
43319;SDS011;28914;48.722;9.332;2023-01-19T13:28:40;7.33;;;4.60;;
43319;SDS011;28914;48.722;9.332;2023-01-19T13:34:02;7.30;;;5.00;;
43319;SDS011;28914;48.722;9.332;2023-01-19T13:39:33;4.70;;;4.27;;
43319;SDS011;28914;48.722;9.332;2023-01-19T13:44:56;5.57;;;5.07;;
43319;SDS011;28914;48.722;9.332;2023-01-19T13:55:42;13.03;;;11.83;;
43319;SDS011;28914;48.722;9.332;2023-01-19T14:01:01;10.83;;;7.17;;
43319;SDS011;28914;48.722;9.332;2023-01-19T14:06:37;7.70;;;6.80;;
43319;SDS011;28914;48.722;9.332;2023-01-19T14:22:46;5.40;;;4.87;;
43319;SDS011;28914;48.722;9.332;2023-01-19T14:28:25;4.43;;;3.90;;
43319;SDS011;28914;48.722;9.332;2023-01-19T14:33:53;5.90;;;4.70;;
43319;SDS011;28914;48.722;9.332;2023-01-19T14:39:15;5.40;;;4.50;;
43319;SDS011;28914;48.722;9.332;2023-01-19T14:44:43;6.57;;;4.70;;
43319;SDS011;28914;48.722;9.332;2023-01-19T14:50:22;4.60;;;4.10;;
43319;SDS011;28914;48.722;9.332;2023-01-19T15:01:11;5.10;;;4.60;;
43319;SDS011;28914;48.722;9.332;2023-01-19T15:06:31;5.23;;;4.20;;
43319;SDS011;28914;48.722;9.332;2023-01-19T15:11:51;5.00;;;4.57;;
43319;SDS011;28914;48.722;9.332;2023-01-19T15:17:14;6.57;;;5.60;;
43319;SDS011;28914;48.722;9.332;2023-01-19T15:22:43;6.27;;;4.63;;
43319;SDS011;28914;48.722;9.332;2023-01-19T15:28:04;7.33;;;4.80;;
43319;SDS011;28914;48.722;9.332;2023-01-19T15:33:29;5.90;;;4.53;;
43319;SDS011;28914;48.722;9.332;2023-01-19T15:38:48;5.50;;;4.73;;
43319;SDS011;28914;48.722;9.332;2023-01-19T15:44:09;6.60;;;4.87;;
43319;SDS011;28914;48.722;9.332;2023-01-19T15:49:28;6.20;;;5.60;;
43319;SDS011;28914;48.722;9.332;2023-01-19T15:54:48;6.30;;;4.50;;
43319;SDS011;28914;48.722;9.332;2023-01-19T16:00:08;5.80;;;4.83;;
43319;SDS011;28914;48.722;9.332;2023-01-19T16:05:28;5.83;;;5.20;;
43319;SDS011;28914;48.722;9.332;2023-01-19T16:10:47;5.80;;;5.17;;
43319;SDS011;28914;48.722;9.332;2023-01-19T16:16:07;5.87;;;5.37;;
43319;SDS011;28914;48.722;9.332;2023-01-19T16:21:34;5.27;;;4.77;;
43319;SDS011;28914;48.722;9.332;2023-01-19T16:27:08;5.37;;;4.53;;
43319;SDS011;28914;48.722;9.332;2023-01-19T16:32:28;5.93;;;5.33;;
43319;SDS011;28914;48.722;9.332;2023-01-19T16:37:49;6.70;;;6.00;;
43319;SDS011;28914;48.722;9.332;2023-01-19T16:43:09;5.63;;;4.93;;
43319;SDS011;28914;48.722;9.332;2023-01-19T16:48:29;7.67;;;6.57;;
43319;SDS011;28914;48.722;9.332;2023-01-19T16:53:50;11.80;;;9.93;;
43319;SDS011;28914;48.722;9.332;2023-01-19T16:59:12;18.87;;;14.57;;
43319;SDS011;28914;48.722;9.332;2023-01-19T17:04:33;11.73;;;10.53;;
43319;SDS011;28914;48.722;9.332;2023-01-19T17:09:52;11.40;;;10.30;;
43319;SDS011;28914;48.722;9.332;2023-01-19T17:15:11;9.13;;;7.27;;
43319;SDS011;28914;48.722;9.332;2023-01-19T17:20:33;7.90;;;6.47;;
43319;SDS011;28914;48.722;9.332;2023-01-19T17:25:53;6.10;;;5.47;;
43319;SDS011;28914;48.722;9.332;2023-01-19T17:31:14;7.40;;;6.43;;
43319;SDS011;28914;48.722;9.332;2023-01-19T17:36:37;10.40;;;8.57;;
43319;SDS011;28914;48.722;9.332;2023-01-19T17:41:58;13.30;;;10.97;;
43319;SDS011;28914;48.722;9.332;2023-01-19T17:47:17;19.10;;;14.23;;
43319;SDS011;28914;48.722;9.332;2023-01-19T17:52:42;11.73;;;9.37;;
43319;SDS011;28914;48.722;9.332;2023-01-19T17:58:01;9.07;;;7.60;;
43319;SDS011;28914;48.722;9.332;2023-01-19T18:03:21;6.10;;;5.57;;
43319;SDS011;28914;48.722;9.332;2023-01-19T18:08:40;13.17;;;10.50;;
43319;SDS011;28914;48.722;9.332;2023-01-19T18:14:01;16.47;;;14.27;;
43319;SDS011;28914;48.722;9.332;2023-01-19T18:19:21;9.13;;;8.33;;
43319;SDS011;28914;48.722;9.332;2023-01-19T18:24:40;10.83;;;8.37;;
43319;SDS011;28914;48.722;9.332;2023-01-19T18:30:01;6.63;;;5.90;;
43319;SDS011;28914;48.722;9.332;2023-01-19T18:35:20;7.23;;;6.53;;
43319;SDS011;28914;48.722;9.332;2023-01-19T18:40:40;8.10;;;7.13;;
43319;SDS011;28914;48.722;9.332;2023-01-19T18:46:00;7.73;;;6.57;;
43319;SDS011;28914;48.722;9.332;2023-01-19T18:51:19;10.13;;;9.17;;
43319;SDS011;28914;48.722;9.332;2023-01-19T18:56:38;11.93;;;10.70;;
43319;SDS011;28914;48.722;9.332;2023-01-19T19:01:58;13.27;;;10.33;;
43319;SDS011;28914;48.722;9.332;2023-01-19T19:07:19;8.93;;;8.03;;
43319;SDS011;28914;48.722;9.332;2023-01-19T19:12:38;7.30;;;6.60;;
43319;SDS011;28914;48.722;9.332;2023-01-19T19:17:58;6.77;;;6.13;;
43319;SDS011;28914;48.722;9.332;2023-01-19T19:23:17;7.50;;;6.07;;
43319;SDS011;28914;48.722;9.332;2023-01-19T19:28:37;7.13;;;6.43;;
43319;SDS011;28914;48.722;9.332;2023-01-19T19:33:57;7.37;;;6.57;;
43319;SDS011;28914;48.722;9.332;2023-01-19T19:39:17;10.50;;;8.47;;
43319;SDS011;28914;48.722;9.332;2023-01-19T19:44:36;8.90;;;7.60;;
43319;SDS011;28914;48.722;9.332;2023-01-19T19:49:55;7.90;;;7.00;;
43319;SDS011;28914;48.722;9.332;2023-01-19T19:55:16;8.77;;;7.97;;
43319;SDS011;28914;48.722;9.332;2023-01-19T20:00:35;8.27;;;7.37;;
43319;SDS011;28914;48.722;9.332;2023-01-19T20:06:01;11.73;;;8.43;;
43319;SDS011;28914;48.722;9.332;2023-01-19T20:11:25;9.30;;;8.40;;
43319;SDS011;28914;48.722;9.332;2023-01-19T20:16:45;10.43;;;8.80;;
43319;SDS011;28914;48.722;9.332;2023-01-19T20:22:04;11.93;;;10.63;;
43319;SDS011;28914;48.722;9.332;2023-01-19T20:27:24;12.00;;;10.33;;
43319;SDS011;28914;48.722;9.332;2023-01-19T20:32:44;11.07;;;9.67;;
43319;SDS011;28914;48.722;9.332;2023-01-19T20:38:03;10.67;;;9.67;;
43319;SDS011;28914;48.722;9.332;2023-01-19T20:43:22;8.80;;;7.90;;
43319;SDS011;28914;48.722;9.332;2023-01-19T20:48:41;8.13;;;7.43;;
43319;SDS011;28914;48.722;9.332;2023-01-19T20:54:01;10.20;;;9.20;;
43319;SDS011;28914;48.722;9.332;2023-01-19T20:59:20;8.90;;;8.00;;
43319;SDS011;28914;48.722;9.332;2023-01-19T21:04:40;9.53;;;7.33;;
43319;SDS011;28914;48.722;9.332;2023-01-19T21:10:00;10.63;;;9.50;;
43319;SDS011;28914;48.722;9.332;2023-01-19T21:15:19;9.63;;;8.73;;
43319;SDS011;28914;48.722;9.332;2023-01-19T21:20:38;10.17;;;8.30;;
43319;SDS011;28914;48.722;9.332;2023-01-19T21:25:58;9.63;;;8.67;;
43319;SDS011;28914;48.722;9.332;2023-01-19T21:31:17;9.07;;;7.13;;
43319;SDS011;28914;48.722;9.332;2023-01-19T21:36:38;8.87;;;7.73;;
43319;SDS011;28914;48.722;9.332;2023-01-19T21:41:57;7.70;;;7.00;;
43319;SDS011;28914;48.722;9.332;2023-01-19T21:47:17;6.73;;;6.10;;
43319;SDS011;28914;48.722;9.332;2023-01-19T21:52:36;9.20;;;6.77;;
43319;SDS011;28914;48.722;9.332;2023-01-19T21:57:56;8.30;;;7.13;;
43319;SDS011;28914;48.722;9.332;2023-01-19T22:03:15;10.07;;;6.70;;
43319;SDS011;28914;48.722;9.332;2023-01-19T22:08:35;9.70;;;8.23;;
43319;SDS011;28914;48.722;9.332;2023-01-19T22:13:54;7.77;;;6.97;;
43319;SDS011;28914;48.722;9.332;2023-01-19T22:19:13;8.40;;;7.50;;
43319;SDS011;28914;48.722;9.332;2023-01-19T22:24:33;10.37;;;9.47;;
43319;SDS011;28914;48.722;9.332;2023-01-19T22:29:52;12.80;;;8.60;;
43319;SDS011;28914;48.722;9.332;2023-01-19T22:35:11;8.33;;;7.47;;
43319;SDS011;28914;48.722;9.332;2023-01-19T22:40:30;9.60;;;8.40;;
43319;SDS011;28914;48.722;9.332;2023-01-19T22:45:49;9.57;;;8.33;;
43319;SDS011;28914;48.722;9.332;2023-01-19T22:51:09;10.83;;;9.00;;
43319;SDS011;28914;48.722;9.332;2023-01-19T22:56:28;10.83;;;9.73;;
43319;SDS011;28914;48.722;9.332;2023-01-19T23:01:49;14.20;;;10.70;;
43319;SDS011;28914;48.722;9.332;2023-01-19T23:07:08;11.03;;;8.70;;
43319;SDS011;28914;48.722;9.332;2023-01-19T23:12:27;12.40;;;10.23;;
43319;SDS011;28914;48.722;9.332;2023-01-19T23:17:46;11.47;;;10.20;;
43319;SDS011;28914;48.722;9.332;2023-01-19T23:23:10;12.93;;;11.53;;
43319;SDS011;28914;48.722;9.332;2023-01-19T23:28:29;13.93;;;10.93;;
43319;SDS011;28914;48.722;9.332;2023-01-19T23:33:50;10.60;;;9.00;;
43319;SDS011;28914;48.722;9.332;2023-01-19T23:39:15;9.67;;;8.70;;
43319;SDS011;28914;48.722;9.332;2023-01-19T23:44:35;12.10;;;10.90;;
43319;SDS011;28914;48.722;9.332;2023-01-19T23:49:54;13.17;;;11.87;;
43319;SDS011;28914;48.722;9.332;2023-01-19T23:55:13;11.00;;;9.90;;
